地図

経路データ

SID SEASON NUMBER BASIN SUBBASIN NAME ISO_TIME NATURE LAT LON WMO_WIND WMO_PRES WMO_AGENCY TRACK_TYPE DIST2LAND LANDFALL IFLAG USA_AGENCY USA_ATCF_ID USA_LAT USA_LON USA_RECORD USA_STATUS USA_WIND USA_PRES USA_SSHS USA_R34_NE USA_R34_SE USA_R34_SW USA_R34_NW USA_R50_NE USA_R50_SE USA_R50_SW USA_R50_NW USA_R64_NE USA_R64_SE USA_R64_SW USA_R64_NW USA_POCI USA_ROCI USA_RMW USA_EYE TOKYO_LAT TOKYO_LON TOKYO_GRADE TOKYO_WIND TOKYO_PRES TOKYO_R50_DIR TOKYO_R50_LONG TOKYO_R50_SHORT TOKYO_R30_DIR TOKYO_R30_LONG TOKYO_R30_SHORT TOKYO_LAND CMA_LAT CMA_LON CMA_CAT CMA_WIND CMA_PRES HKO_LAT HKO_LON HKO_CAT HKO_WIND HKO_PRES NEWDELHI_LAT NEWDELHI_LON NEWDELHI_GRADE NEWDELHI_WIND NEWDELHI_PRES NEWDELHI_CI NEWDELHI_DP NEWDELHI_POCI REUNION_LAT REUNION_LON REUNION_TYPE REUNION_WIND REUNION_PRES REUNION_TNUM REUNION_CI REUNION_RMW REUNION_R34_NE REUNION_R34_SE REUNION_R34_SW REUNION_R34_NW REUNION_R50_NE REUNION_R50_SE REUNION_R50_SW REUNION_R50_NW REUNION_R64_NE REUNION_R64_SE REUNION_R64_SW REUNION_R64_NW BOM_LAT BOM_LON BOM_TYPE BOM_WIND BOM_PRES BOM_TNUM BOM_CI BOM_RMW BOM_R34_NE BOM_R34_SE BOM_R34_SW BOM_R34_NW BOM_R50_NE BOM_R50_SE BOM_R50_SW BOM_R50_NW BOM_R64_NE BOM_R64_SE BOM_R64_SW BOM_R64_NW BOM_ROCI BOM_POCI BOM_EYE BOM_POS_METHOD BOM_PRES_METHOD NADI_LAT NADI_LON NADI_CAT NADI_WIND NADI_PRES WELLINGTON_LAT WELLINGTON_LON WELLINGTON_WIND WELLINGTON_PRES DS824_LAT DS824_LON DS824_STAGE DS824_WIND DS824_PRES TD9636_LAT TD9636_LON TD9636_STAGE TD9636_WIND TD9636_PRES TD9635_LAT TD9635_LON TD9635_WIND TD9635_PRES TD9635_ROCI NEUMANN_LAT NEUMANN_LON NEUMANN_CLASS NEUMANN_WIND NEUMANN_PRES MLC_LAT MLC_LON MLC_CLASS MLC_WIND MLC_PRES USA_GUST BOM_GUST BOM_GUST_PER REUNION_GUST REUNION_GUST_PER USA_SEAHGT USA_SEARAD_NE USA_SEARAD_SE USA_SEARAD_SW USA_SEARAD_NW STORM_SPEED STORM_DIR
1931250N21128 1931 36 WP MM NOT_NAMED 1931-09-07 10:00:00 NR 20.5000 127.600 main 603 603 __________O___ -1 20.5000 127.600 7 5 44
1931250N21128 1931 36 WP MM NOT_NAMED 1931-09-07 12:00:00 NR 20.6306 127.732 main 617 617 __________P___ -1 20.6306 127.732 7 6 43
1931250N21128 1931 36 WP MM NOT_NAMED 1931-09-07 15:00:00 NR 20.8525 127.948 main 649 659 __________P___ -1 20.8525 127.948 7 7 41
1931250N21128 1931 36 WP MM NOT_NAMED 1931-09-07 18:00:00 NR 21.1413 128.215 main 687 692 __________P___ -1 21.1413 128.215 7 9 40
1931250N21128 1931 36 WP MM NOT_NAMED 1931-09-07 21:00:00 NR 21.5373 128.561 main 744 749 __________P___ -1 21.5373 128.561 7 11 39
1931250N21128 1931 36 WP MM NOT_NAMED 1931-09-07 22:00:00 NR 21.7000 128.700 main 762 757 __________O___ -1 21.7000 128.700 7 14 38
1931250N21128 1931 36 WP MM NOT_NAMED 1931-09-08 00:00:00 NR 22.0749 129.016 main 772 772 __________P___ -1 22.0749 129.016 7 16 38
1931250N21128 1931 36 WP MM NOT_NAMED 1931-09-08 03:00:00 NR 22.7257 129.566 main 809 806 __________P___ -1 22.7257 129.566 7 17 38
1931250N21128 1931 36 WP MM NOT_NAMED 1931-09-08 06:00:00 NR 23.4214 130.173 main 850 770 __________P___ -1 23.4214 130.173 7 18 40
1931250N21128 1931 36 WP MM NOT_NAMED 1931-09-08 09:00:00 NR 24.0931 130.796 main 770 748 __________P___ -1 24.0931 130.796 7 17 41
1931250N21128 1931 36 WP MM NOT_NAMED 1931-09-08 10:00:00 NR 24.3000 131.000 main 748 717 __________O___ -1 24.3000 131.000 3 15 45
1931250N21128 1931 36 WP MM NOT_NAMED 1931-09-08 12:00:00 NR 24.6401 131.387 main 717 669 __________P___ -1 24.6401 131.387 3 14 47
1931250N21128 1931 36 WP MM NOT_NAMED 1931-09-08 15:00:00 NR 25.1001 131.960 main 670 636 __________P___ -1 25.1001 131.960 3 14 49
1931250N21128 1931 36 WP MM NOT_NAMED 1931-09-08 18:00:00 NR 25.5274 132.514 main 638 601 __________P___ -1 25.5274 132.514 3 13 49
1931250N21128 1931 36 WP MM NOT_NAMED 1931-09-08 21:00:00 NR 25.9531 133.035 main 601 598 __________P___ -1 25.9531 133.035 3 13 47
1931250N21128 1931 36 WP MM NOT_NAMED 1931-09-08 22:00:00 NR 26.1000 133.200 main 598 581 __________O___ -1 26.1000 133.200 4 13 41
1931250N21128 1931 36 WP MM NOT_NAMED 1931-09-09 00:00:00 NR 26.4261 133.500 main 581 553 __________P___ -1 26.4261 133.500 4 13 38
1931250N21128 1931 36 WP MM NOT_NAMED 1931-09-09 03:00:00 NR 26.9287 133.918 main 553 527 __________P___ -1 26.9287 133.918 4 13 36
1931250N21128 1931 36 WP MM NOT_NAMED 1931-09-09 06:00:00 NR 27.4365 134.323 main 527 503 __________P___ -1 27.4365 134.323 4 13 36
1931250N21128 1931 36 WP MM NOT_NAMED 1931-09-09 09:00:00 NR 27.9370 134.749 main 503 499 __________P___ -1 27.9370 134.749 4 13 38
1931250N21128 1931 36 WP MM NOT_NAMED 1931-09-09 10:00:00 NR 28.1000 134.900 main 499 495 __________O___ -1 28.1000 134.900 4 13 41
1931250N21128 1931 36 WP MM NOT_NAMED 1931-09-09 12:00:00 NR 28.4182 135.222 main 495 495 __________P___ -1 28.4182 135.222 4 13 44
1931250N21128 1931 36 WP MM NOT_NAMED 1931-09-09 15:00:00 NR 28.8783 135.748 main 495 458 __________P___ -1 28.8783 135.748 4 13 47
1931250N21128 1931 36 WP MM NOT_NAMED 1931-09-09 18:00:00 NR 29.3227 136.313 main 459 414 __________P___ -1 29.3227 136.313 4 13 49
1931250N21128 1931 36 WP MM NOT_NAMED 1931-09-09 21:00:00 NR 29.7567 136.901 main 414 406 __________P___ -1 29.7567 136.901 4 13 50
1931250N21128 1931 36 WP MM NOT_NAMED 1931-09-09 22:00:00 NR 29.9000 137.100 main 409 __________O___ -1 29.9000 137.100 4 13 50

デジタル台風データ・検索

IBTrACS Databaseについて

本データベースは、米国NOAAが公開する1842年以降の世界の熱帯低気圧のベストトラックデータアーカイブInternational Best Track Archive for Climate Stewardship (IBTrACS)を、ウェブで閲覧しやすい形式に変換したものです。

最終更新日:2021-12-03